Airfield :
LOGIN :

Register | Disclaimer

   EN    FR    IT 

 










Legend :    VFR   Marginal VFR   IFR   Intensive IFR   Very Intensive IFR
Visi :
Ceiling :
>= 8 km
>= 3000ft
5 to 8 km
1000 to 3000 ft
1500m to 5 km
500 to 1000 ft
800 to 1500m
200 to 500 ft
< 800m
< 200 ft
Symbols :   Thunderstorms  Fog  Heavy snow  Heavy precipitations  Wind > 20 kt
SIGMETs :     Misc.  Thunderstorms  Icing  Turbulence  Mountain Waves  Volcanic Ashes






- Airport Elevation : 147 ft
- IATA code : DUS


EDDL - Düsseldorf Int.

CURRENT METAR :
  • 211720Z AUTO 17005KT 140V220 9999 -RA NSC 16/14 Q1006 BECMG 27005KT

EXPIRED METARs :
  • 211650Z AUTO VRB02KT 9999 -RA NSC 16/14 Q1006 RESHRA BECMG 27005KT
  • 211620Z AUTO 19007KT 9999 SHRA FEW///TCU 16/14 Q1005 RETS BECMG 27005KT NSW
  • 211550Z AUTO 19011KT 9999 TSRA FEW021 SCT042 FEW///CB 16/14 Q1006 BECMG 27005KT NSW
  • 211520Z AUTO VRB01KT 9999 -SHRA VCTS FEW///CB 18/15 Q1005 RESHRA TEMPO 18020G30KT 1500 +TSRA
  • 211450Z AUTO VRB02KT CAVOK 18/15 Q1005 TEMPO FM1530 18020G30KT 2000 +TSRA BKN025CB
  • 211420Z AUTO 31006KT 280V340 9999 FEW047 18/15 Q1005 TEMPO FM1530 18020G30KT 3000 TSRA BKN025CB
  • 211350Z AUTO VRB02KT CAVOK 18/16 Q1006 RESHRA TEMPO 28007KT SHRA BKN025CB
  • 211320Z AUTO 01004KT 260V050 9999 SHRA VCTS FEW///CB 17/15 Q1006 RETS BECMG 30006KT NSW

TAF TAF EDDL
Valid from the 21 at 18:00 until the 23 at 00:00 UTC


211700Z 2118/2224 25006KT 9999 SCT008 BKN020
TEMPO 2118/2123 4500 RA BKN008
TEMPO 2123/2208 3000 BR BKN008
PROB30
TEMPO 2123/2206 1200 BCFG BKN003
BECMG 2207/2210 23013KT
PROB30
TEMPO 2211/2216 23015G25KT SHRA BKN040TCU
BECMG 2218/2220 21006KT



MET'MAP, your aeronautical weather chart ! - Copyright ORBIFLY December 2007 - Disclaimer

ORBIFLY MET'MAP TEAM :

Programming & Development : Alexandra Zaïnal
Original concept : Baudouin d'Aumeries
Technical & hardware support : Manuel Goepfert
Assistance : Marc-Olivier Méhu




SOURCES & CREDITS :

   NOAA